Time;durP1;ratioP1;P1;durP2;ratioP2;P2;SDS_P1;SDS_P2;PMS_P1;PMS_P2;Temp;Humidity;BMP_temperature;BMP_pressure;BME280_temperature;BME280_humidity;BME280_pressure;Samples;Min_cycle;Max_cycle;Signal;HPM_P1;HPM_P2
2023/01/27 00:00:53;;;;;;;21.87;11.80;;;3.20;1.00;;;;;;4982850;28;20228;-80
2023/01/27 00:03:21;;;;;;;30.17;14.63;;;3.20;1.00;;;;;;4998370;28;20294;-72
2023/01/27 00:05:48;;;;;;;29.40;15.47;;;3.00;1.00;;;;;;4986908;28;20207;-70
2023/01/27 00:08:16;;;;;;;25.13;13.93;;;2.90;1.00;;;;;;5014437;28;20200;-67
2023/01/27 00:10:44;;;;;;;29.70;14.67;;;2.80;1.00;;;;;;5012428;28;20296;-68
2023/01/27 00:13:28;;;;;;;28.47;14.33;;;2.70;1.00;;;;;;4999413;28;20580;-68
2023/01/27 00:15:54;;;;;;;30.80;14.43;;;2.70;1.00;;;;;;4998959;28;20723;-68
2023/01/27 00:18:22;;;;;;;21.50;11.70;;;2.70;1.00;;;;;;4982226;28;20304;-68
2023/01/27 00:26:21;;;;;;;19.63;11.00;;;2.70;99.90;;;;;;5000322;28;20555;-70
2023/01/27 00:28:48;;;;;;;20.30;12.07;;;2.60;99.90;;;;;;4987533;28;20654;-68
2023/01/27 00:34:10;;;;;;;24.03;13.23;;;2.60;1.00;;;;;;4989076;28;20209;-70
2023/01/27 00:36:40;;;;;;;22.47;13.07;;;2.60;1.00;;;;;;4999614;28;20204;-67
2023/01/27 00:39:09;;;;;;;24.13;13.40;;;2.60;1.00;;;;;;4998824;28;20207;-68
2023/01/27 00:41:37;;;;;;;22.77;13.60;;;2.60;1.00;;;;;;4999592;28;20673;-68
2023/01/27 00:44:04;;;;;;;27.47;15.00;;;2.60;1.00;;;;;;4987843;28;20292;-68
2023/01/27 00:46:32;;;;;;;27.20;14.40;;;2.60;1.00;;;;;;5013278;28;20268;-69
2023/01/27 00:49:00;;;;;;;31.07;15.03;;;2.60;1.00;;;;;;4997205;28;20633;-69
2023/01/27 00:51:27;;;;;;;29.90;15.13;;;2.60;1.00;;;;;;5001673;28;20669;-68
2023/01/27 00:53:54;;;;;;;26.77;14.87;;;2.60;1.00;;;;;;4999423;28;20197;-68
2023/01/27 00:56:21;;;;;;;28.33;16.67;;;2.60;1.00;;;;;;4999038;28;20241;-68
2023/01/27 00:58:48;;;;;;;29.33;15.90;;;2.60;1.00;;;;;;4989539;28;20229;-67
2023/01/27 01:01:16;;;;;;;34.77;17.07;;;2.60;1.00;;;;;;4981421;28;20204;-66
2023/01/27 01:03:44;;;;;;;38.67;19.83;;;2.60;35.30;;;;;;4980719;28;20316;-67
2023/01/27 01:06:15;;;;;;;31.47;18.70;;;2.60;99.90;;;;;;4982633;28;20697;-67
2023/01/27 01:08:43;;;;;;;37.90;19.03;;;2.60;99.90;;;;;;4980370;28;20209;-68
2023/01/27 01:11:14;;;;;;;35.40;18.67;;;2.50;99.90;;;;;;5013309;28;20207;-69
2023/01/27 01:13:42;;;;;;;35.53;18.40;;;2.60;99.90;;;;;;4986634;28;20221;-68
2023/01/27 01:16:13;;;;;;;36.33;18.03;;;2.60;99.90;;;;;;4999052;28;20216;-68
2023/01/27 01:18:41;;;;;;;36.27;18.67;;;2.50;99.90;;;;;;4996077;28;20244;-69
2023/01/27 01:21:09;;;;;;;38.37;18.23;;;2.50;99.90;;;;;;4988306;28;20214;-67
2023/01/27 01:23:41;;;;;;;34.33;18.93;;;2.50;99.90;;;;;;4988090;28;20197;-68
2023/01/27 01:26:10;;;;;;;36.80;17.33;;;2.50;99.90;;;;;;4981232;28;20205;-69
2023/01/27 01:28:37;;;;;;;34.10;17.67;;;2.50;99.90;;;;;;4988809;28;20219;-68
2023/01/27 01:31:07;;;;;;;36.30;17.10;;;2.50;99.90;;;;;;4988166;28;20224;-68
2023/01/27 01:33:35;;;;;;;31.23;16.83;;;2.60;87.00;;;;;;4996973;28;20272;-69
2023/01/27 01:36:07;;;;;;;29.83;14.97;;;2.50;23.20;;;;;;4980972;28;20205;-68
2023/01/27 01:38:35;;;;;;;32.43;16.07;;;2.60;1.00;;;;;;4999856;28;20194;-69
2023/01/27 01:41:04;;;;;;;27.87;14.73;;;2.60;1.00;;;;;;4992012;28;20681;-68
2023/01/27 01:43:31;;;;;;;29.60;14.37;;;2.60;1.00;;;;;;4999373;28;20228;-69
2023/01/27 01:46:00;;;;;;;26.93;14.00;;;2.70;1.00;;;;;;5000833;28;20665;-70
2023/01/27 01:49:02;;;;;;;27.80;15.20;;;2.70;1.00;;;;;;4983056;28;20220;-67
2023/01/27 01:51:43;;;;;;;25.63;14.40;;;2.70;1.00;;;;;;4972170;28;20204;-69
2023/01/27 01:54:42;;;;;;;28.33;14.50;;;2.70;1.00;;;;;;4992370;28;20216;-68
2023/01/27 01:57:32;;;;;;;30.10;15.10;;;2.70;1.00;;;;;;5001054;28;20324;-68
2023/01/27 02:00:05;;;;;;;28.10;14.63;;;2.70;1.00;;;;;;4992630;28;20257;-79
2023/01/27 02:02:40;;;;;;;27.77;14.47;;;2.70;1.00;;;;;;5023111;22;20696;-66
2023/01/27 02:05:18;;;;;;;28.97;15.37;;;2.70;1.00;;;;;;5029122;28;20229;-66
2023/01/27 02:07:57;;;;;;;29.40;15.40;;;2.70;1.00;;;;;;5021518;28;20647;-66
2023/01/27 02:10:25;;;;;;;30.87;16.47;;;2.70;1.00;;;;;;5029853;28;20665;-66
2023/01/27 02:12:52;;;;;;;26.70;15.13;;;2.70;1.00;;;;;;5048075;28;20203;-66
2023/01/27 02:15:20;;;;;;;30.03;16.00;;;2.70;1.00;;;;;;5048029;28;20608;-66
2023/01/27 02:17:48;;;;;;;31.10;16.60;;;2.70;1.00;;;;;;5048108;28;20246;-65
2023/01/27 02:20:26;;;;;;;26.00;15.27;;;2.70;1.00;;;;;;5048011;28;20199;-68
2023/01/27 02:23:19;;;;;;;29.73;15.57;;;2.70;1.00;;;;;;5029685;28;20249;-65
2023/01/27 02:26:04;;;;;;;24.53;15.17;;;2.70;1.00;;;;;;5028612;28;20905;-67
2023/01/27 02:28:32;;;;;;;29.60;15.90;;;2.70;1.00;;;;;;5045339;28;20344;-67
2023/01/27 02:30:59;;;;;;;29.93;15.30;;;2.70;1.00;;;;;;5027493;28;20325;-66
2023/01/27 02:33:27;;;;;;;28.57;14.93;;;2.70;1.00;;;;;;5046392;28;20195;-64
2023/01/27 02:36:00;;;;;;;28.27;15.93;;;2.70;1.00;;;;;;5030526;28;20200;-67
2023/01/27 02:38:33;;;;;;;28.67;14.03;;;2.70;1.00;;;;;;5028903;28;20223;-66
2023/01/27 02:41:10;;;;;;;22.90;13.30;;;2.70;1.00;;;;;;5029517;28;20199;-67
2023/01/27 02:43:37;;;;;;;29.30;13.60;;;2.70;1.00;;;;;;5021059;28;20822;-67
2023/01/27 02:46:05;;;;;;;24.63;13.90;;;2.80;1.00;;;;;;5021034;28;20550;-66
2023/01/27 02:48:32;;;;;;;22.47;13.53;;;2.80;1.00;;;;;;5047223;28;20199;-67
2023/01/27 02:50:59;;;;;;;23.23;13.33;;;2.80;1.00;;;;;;5047019;28;20215;-66
2023/01/27 02:53:28;;;;;;;22.00;11.83;;;2.80;1.00;;;;;;5013370;28;20196;-66
2023/01/27 02:55:55;;;;;;;22.30;11.87;;;2.80;1.00;;;;;;5013187;28;20208;-65
2023/01/27 02:58:22;;;;;;;23.30;12.53;;;2.80;1.00;;;;;;5047733;28;20211;-67
2023/01/27 03:00:57;;;;;;;25.20;12.83;;;2.80;1.00;;;;;;5029803;28;20281;-65
2023/01/27 03:03:24;;;;;;;21.23;13.23;;;2.80;1.00;;;;;;5028694;28;20242;-67
2023/01/27 03:05:51;;;;;;;22.87;14.40;;;2.80;1.00;;;;;;5020986;28;20274;-68
2023/01/27 03:08:19;;;;;;;24.57;12.67;;;2.80;1.00;;;;;;5044411;28;20218;-68
2023/01/27 03:10:51;;;;;;;22.93;13.00;;;2.80;1.00;;;;;;5038298;28;20216;-68
2023/01/27 03:13:24;;;;;;;22.83;12.73;;;2.80;1.00;;;;;;5045437;28;20225;-67
2023/01/27 03:18:44;;;;;;;21.60;12.67;;;2.80;1.00;;;;;;5043207;28;20221;-66
2023/01/27 03:21:13;;;;;;;22.93;13.03;;;2.80;1.00;;;;;;5026798;28;20192;-66
2023/01/27 03:23:40;;;;;;;24.73;13.10;;;2.80;1.00;;;;;;5026534;28;20566;-67
2023/01/27 03:26:08;;;;;;;27.80;13.10;;;2.80;1.00;;;;;;5019397;28;20198;-67
2023/01/27 03:28:38;;;;;;;27.00;13.97;;;2.80;1.00;;;;;;5042997;28;20770;-67
2023/01/27 03:31:18;;;;;;;23.73;11.93;;;2.80;1.00;;;;;;5027387;28;20214;-67
2023/01/27 03:33:52;;;;;;;24.20;14.03;;;2.80;1.00;;;;;;5044335;28;20207;-67
2023/01/27 03:47:30;;;;;;;22.97;12.70;;;2.80;99.90;;;;;;5045979;28;20188;-66
2023/01/27 03:49:57;;;;;;;20.27;12.83;;;2.80;99.90;;;;;;5025600;28;20512;-66
2023/01/27 03:52:24;;;;;;;23.70;13.23;;;2.80;99.90;;;;;;5025474;28;20222;-65
2023/01/27 03:54:51;;;;;;;28.37;13.90;;;2.80;99.90;;;;;;5026316;28;20210;-67
2023/01/27 03:57:18;;;;;;;23.37;14.20;;;2.90;99.90;;;;;;5042656;28;20658;-60
2023/01/27 03:59:45;;;;;;;27.57;13.50;;;2.90;99.90;;;;;;5022154;28;20214;-59
2023/01/27 04:07:43;;;;;;;20.27;12.10;;;2.90;99.90;;;;;;5043132;28;20996;-60
2023/01/27 04:10:10;;;;;;;25.60;13.53;;;2.90;99.90;;;;;;5040185;28;20278;-61
2023/01/27 04:12:37;;;;;;;22.03;13.00;;;2.90;99.90;;;;;;5040564;28;20196;-60
2023/01/27 04:15:05;;;;;;;22.03;12.30;;;2.90;99.90;;;;;;5043654;28;20211;-61
2023/01/27 04:17:37;;;;;;;22.37;13.00;;;2.90;99.90;;;;;;5041931;28;20683;-62
2023/01/27 04:20:05;;;;;;;23.40;12.90;;;2.90;99.90;;;;;;5044925;28;20542;-61
2023/01/27 04:22:32;;;;;;;21.60;13.10;;;3.00;99.90;;;;;;5024009;28;20192;-62
2023/01/27 04:24:59;;;;;;;20.97;12.83;;;2.90;99.90;;;;;;5044928;28;20199;-61
2023/01/27 04:27:26;;;;;;;20.47;13.13;;;3.00;99.90;;;;;;5043249;28;20195;-62
2023/01/27 04:29:53;;;;;;;22.90;12.10;;;3.00;99.90;;;;;;5044180;28;20590;-60
2023/01/27 04:32:20;;;;;;;19.60;11.80;;;3.00;99.90;;;;;;5043188;28;20215;-62
2023/01/27 04:34:46;;;;;;;17.33;11.63;;;3.00;99.90;;;;;;5042789;28;20195;-61
2023/01/27 04:37:13;;;;;;;21.10;11.57;;;3.00;99.90;;;;;;5043077;28;20298;-61
2023/01/27 04:39:40;;;;;;;20.40;12.27;;;3.00;99.90;;;;;;5044737;28;20228;-62
2023/01/27 04:42:07;;;;;;;20.93;11.73;;;3.00;99.90;;;;;;5041950;28;20206;-60
2023/01/27 04:44:34;;;;;;;18.53;12.17;;;3.00;99.90;;;;;;5041765;28;20736;-60
2023/01/27 04:47:01;;;;;;;20.70;12.60;;;3.00;99.90;;;;;;5032908;28;20198;-60
2023/01/27 04:49:28;;;;;;;21.43;12.53;;;3.00;99.90;;;;;;5031695;28;20206;-60
2023/01/27 04:51:55;;;;;;;19.77;12.77;;;3.00;99.90;;;;;;5029802;28;20555;-60
2023/01/27 04:54:22;;;;;;;22.40;12.43;;;3.10;99.90;;;;;;5033539;28;20204;-60
2023/01/27 04:57:02;;;;;;;22.47;11.97;;;3.00;99.90;;;;;;5033246;28;20718;-61
2023/01/27 04:59:29;;;;;;;18.40;11.17;;;3.10;99.90;;;;;;5031660;28;20272;-59
2023/01/27 05:01:56;;;;;;;21.00;12.47;;;3.10;99.90;;;;;;5031197;28;20274;-59
2023/01/27 05:04:25;;;;;;;18.10;12.07;;;3.10;99.90;;;;;;5032646;28;20289;-59
2023/01/27 05:06:52;;;;;;;19.93;11.90;;;3.10;99.90;;;;;;5028428;28;20326;-59
2023/01/27 05:09:19;;;;;;;20.20;12.10;;;3.10;97.30;;;;;;5032479;28;20235;-60
2023/01/27 05:11:49;;;;;;;20.53;11.57;;;3.10;63.00;;;;;;5035819;28;20204;-68
2023/01/27 05:14:18;;;;;;;18.70;11.03;;;3.10;1.00;;;;;;5036447;28;20613;-67
2023/01/27 05:16:45;;;;;;;16.70;11.50;;;3.10;1.00;;;;;;5040396;28;20239;-68
2023/01/27 05:19:12;;;;;;;17.80;11.70;;;3.10;1.00;;;;;;5037870;28;20326;-68
2023/01/27 05:21:39;;;;;;;14.67;10.27;;;3.10;1.00;;;;;;5038714;28;20192;-68
2023/01/27 05:24:06;;;;;;;15.57;10.50;;;3.10;1.00;;;;;;5038157;28;20196;-68
2023/01/27 05:26:33;;;;;;;16.27;10.20;;;3.10;1.00;;;;;;5039391;28;20188;-68
2023/01/27 05:29:00;;;;;;;15.03;10.70;;;3.10;1.00;;;;;;5040506;28;20552;-68
2023/01/27 05:31:30;;;;;;;16.30;10.47;;;3.10;1.00;;;;;;5037651;28;20196;-66
2023/01/27 05:33:59;;;;;;;15.83;10.73;;;3.20;1.00;;;;;;5035753;28;20242;-67
2023/01/27 05:36:27;;;;;;;14.70;9.97;;;3.20;1.00;;;;;;5036246;28;20206;-65
2023/01/27 05:38:55;;;;;;;16.00;11.03;;;3.20;1.00;;;;;;5040507;28;20298;-68
2023/01/27 05:41:22;;;;;;;15.70;10.67;;;3.20;1.00;;;;;;5037310;28;20247;-67
2023/01/27 05:43:54;;;;;;;15.73;9.87;;;3.20;1.00;;;;;;5035629;28;20196;-67
2023/01/27 05:46:27;;;;;;;13.67;10.17;;;3.20;1.00;;;;;;5036067;28;20292;-68
2023/01/27 05:49:00;;;;;;;13.43;9.37;;;3.20;1.00;;;;;;5033640;28;20227;-68
2023/01/27 05:51:33;;;;;;;13.10;9.87;;;3.20;1.00;;;;;;5035118;28;20278;-68
2023/01/27 05:54:00;;;;;;;16.27;10.13;;;3.20;1.00;;;;;;5037775;28;20199;-68
2023/01/27 05:56:27;;;;;;;15.23;10.80;;;3.30;1.00;;;;;;5038441;28;20220;-67
2023/01/27 05:58:56;;;;;;;16.20;10.67;;;3.20;1.00;;;;;;5037597;28;20207;-67
2023/01/27 06:01:32;;;;;;;13.17;9.87;;;3.30;1.00;;;;;;5031723;28;20241;-67
2023/01/27 06:03:59;;;;;;;15.37;9.83;;;3.20;1.00;;;;;;5032829;28;20214;-67
2023/01/27 06:06:28;;;;;;;14.73;10.70;;;3.20;1.00;;;;;;5036167;28;20600;-63
2023/01/27 06:08:56;;;;;;;15.63;10.23;;;3.20;1.00;;;;;;5039296;28;20617;-67
2023/01/27 06:11:23;;;;;;;18.47;12.67;;;3.20;1.00;;;;;;5038513;28;20201;-67
2023/01/27 06:13:52;;;;;;;16.33;10.50;;;3.30;1.00;;;;;;5035183;28;20204;-68
2023/01/27 06:16:21;;;;;;;14.47;10.40;;;3.30;1.00;;;;;;5037395;28;20315;-66
2023/01/27 06:18:48;;;;;;;15.87;11.17;;;3.30;1.00;;;;;;5035082;28;20203;-67
2023/01/27 06:21:16;;;;;;;15.10;9.77;;;3.30;1.00;;;;;;5034665;28;20208;-67
2023/01/27 06:23:44;;;;;;;15.63;11.10;;;3.30;1.00;;;;;;5000417;28;20196;-67
2023/01/27 06:26:15;;;;;;;13.80;10.57;;;3.30;1.00;;;;;;5035941;28;20200;-66
2023/01/27 06:28:42;;;;;;;16.67;10.73;;;3.30;1.00;;;;;;5037517;28;20743;-67
2023/01/27 06:31:18;;;;;;;15.57;10.20;;;3.30;1.00;;;;;;5037666;28;20599;-60
2023/01/27 06:33:45;;;;;;;16.33;10.30;;;3.30;1.00;;;;;;5037254;28;21073;-61
2023/01/27 06:36:15;;;;;;;14.57;10.23;;;3.30;1.00;;;;;;5036873;28;20195;-61
2023/01/27 06:38:43;;;;;;;13.47;9.87;;;3.30;1.00;;;;;;5037592;28;20428;-61
2023/01/27 06:41:10;;;;;;;12.63;9.43;;;3.30;1.00;;;;;;5037388;28;20216;-61
2023/01/27 06:43:37;;;;;;;13.67;9.33;;;3.30;1.00;;;;;;5038567;28;20254;-61
2023/01/27 06:46:04;;;;;;;13.63;9.27;;;3.30;1.00;;;;;;5035910;28;20235;-61
2023/01/27 06:48:32;;;;;;;13.63;9.40;;;3.30;1.00;;;;;;5035894;28;20285;-61
2023/01/27 06:51:00;;;;;;;11.07;8.30;;;3.40;1.00;;;;;;5051671;28;20195;-60
2023/01/27 06:53:27;;;;;;;12.20;8.63;;;3.30;1.00;;;;;;5035246;28;20228;-61
2023/01/27 06:55:55;;;;;;;12.20;8.50;;;3.40;1.00;;;;;;5037052;28;20196;-60
2023/01/27 06:58:23;;;;;;;11.30;9.30;;;3.30;1.00;;;;;;5053870;28;20297;-61
2023/01/27 07:00:51;;;;;;;11.17;8.80;;;3.40;1.00;;;;;;5036274;28;20281;-61
2023/01/27 07:03:18;;;;;;;10.13;8.70;;;3.40;1.00;;;;;;5019465;28;20214;-62
2023/01/27 07:05:45;;;;;;;11.17;8.67;;;3.40;1.00;;;;;;5036447;28;20192;-61
2023/01/27 07:08:11;;;;;;;11.03;8.23;;;3.40;1.00;;;;;;5035535;28;20303;-61
2023/01/27 07:10:38;;;;;;;10.60;8.07;;;3.40;1.00;;;;;;5037613;28;20215;-60
2023/01/27 07:13:07;;;;;;;12.13;8.47;;;3.50;1.00;;;;;;5034713;28;20214;-61
2023/01/27 07:15:35;;;;;;;10.60;7.80;;;3.40;1.00;;;;;;5035324;28;20211;-58
2023/01/27 07:18:03;;;;;;;12.83;8.53;;;3.40;1.00;;;;;;5037732;28;20216;-59
2023/01/27 07:20:31;;;;;;;9.93;7.77;;;3.40;1.00;;;;;;5035036;28;20189;-59
2023/01/27 07:23:00;;;;;;;9.73;7.80;;;3.50;26.80;;;;;;5036659;28;20193;-60
2023/01/27 07:25:27;;;;;;;11.53;8.63;;;3.40;75.90;;;;;;5037853;28;20192;-59
2023/01/27 07:27:57;;;;;;;10.77;8.03;;;3.40;99.90;;;;;;5036017;28;20195;-58
2023/01/27 07:30:24;;;;;;;10.10;7.73;;;3.50;99.90;;;;;;5038889;28;20266;-59
2023/01/27 07:32:53;;;;;;;11.23;8.80;;;3.50;99.90;;;;;;5037403;28;20876;-58
2023/01/27 07:35:21;;;;;;;11.53;8.43;;;3.50;99.90;;;;;;5035404;28;20282;-59
2023/01/27 07:37:48;;;;;;;12.57;9.03;;;3.50;99.90;;;;;;5037058;28;20234;-59
2023/01/27 07:40:16;;;;;;;10.67;8.30;;;3.50;99.90;;;;;;5034889;28;20287;-65
2023/01/27 07:42:44;;;;;;;12.37;8.57;;;3.50;99.90;;;;;;5036050;28;20215;-65
2023/01/27 07:45:11;;;;;;;12.80;8.67;;;3.60;99.90;;;;;;5016977;28;20768;-59
2023/01/27 07:47:38;;;;;;;12.43;9.20;;;3.60;99.90;;;;;;5034516;28;20199;-59
2023/01/27 07:50:06;;;;;;;10.33;7.73;;;3.60;99.90;;;;;;5019212;28;20226;-59
2023/01/27 07:52:33;;;;;;;9.80;8.10;;;3.60;99.90;;;;;;5036519;28;20205;-65
2023/01/27 07:55:00;;;;;;;10.23;8.73;;;3.60;99.90;;;;;;5034891;28;20203;-65
2023/01/27 07:57:27;;;;;;;10.90;8.17;;;3.60;99.90;;;;;;5016852;28;20342;-65
2023/01/27 07:59:55;;;;;;;9.57;7.80;;;3.70;99.90;;;;;;5036053;28;20208;-65
2023/01/27 08:02:23;;;;;;;10.40;8.20;;;3.70;99.90;;;;;;5036661;28;20274;-65
2023/01/27 08:04:50;;;;;;;11.13;7.63;;;3.70;99.90;;;;;;5034760;28;20211;-67
2023/01/27 08:07:20;;;;;;;10.00;7.63;;;3.80;99.90;;;;;;5018462;28;20188;-67
2023/01/27 08:09:47;;;;;;;9.13;7.27;;;3.80;66.20;;;;;;5036954;28;20211;-67
2023/01/27 08:12:14;;;;;;;10.73;7.70;;;3.80;38.90;;;;;;5031214;28;20204;-61
2023/01/27 08:14:41;;;;;;;10.27;8.03;;;3.90;1.00;;;;;;5033678;28;20200;-61
2023/01/27 08:17:08;;;;;;;11.03;7.70;;;3.90;1.00;;;;;;5036466;28;20223;-61
2023/01/27 08:19:35;;;;;;;10.53;7.23;;;4.00;1.00;;;;;;5018500;28;20234;-61
2023/01/27 08:22:02;;;;;;;11.97;7.47;;;4.00;1.00;;;;;;5034012;28;20223;-61
2023/01/27 08:24:29;;;;;;;8.67;6.80;;;4.20;1.00;;;;;;5035227;28;20331;-60
2023/01/27 08:26:56;;;;;;;9.30;7.43;;;4.20;1.00;;;;;;5034943;28;20209;-58
2023/01/27 08:29:23;;;;;;;8.27;6.33;;;4.20;1.00;;;;;;5034522;28;20200;-61
2023/01/27 08:31:50;;;;;;;10.03;6.80;;;4.20;1.00;;;;;;5035613;28;20204;-61
2023/01/27 08:34:17;;;;;;;7.17;5.53;;;4.30;1.00;;;;;;5034551;28;20199;-60
2023/01/27 08:36:44;;;;;;;7.60;6.50;;;4.20;1.00;;;;;;5034351;28;20208;-60
2023/01/27 08:39:11;;;;;;;7.33;5.83;;;4.10;1.00;;;;;;5034133;28;20719;-61
2023/01/27 08:41:38;;;;;;;7.53;6.13;;;4.20;1.00;;;;;;5036145;28;20266;-60
2023/01/27 08:44:05;;;;;;;6.67;5.77;;;4.20;1.00;;;;;;5034231;28;20337;-60
2023/01/27 08:46:33;;;;;;;7.33;6.27;;;4.20;1.00;;;;;;5035771;28;20192;-62
2023/01/27 08:49:00;;;;;;;7.57;6.03;;;4.10;1.00;;;;;;5032411;28;20679;-60
2023/01/27 08:51:27;;;;;;;7.03;6.20;;;4.20;1.00;;;;;;5033619;28;20254;-58
2023/01/27 08:53:54;;;;;;;8.27;6.60;;;4.20;1.00;;;;;;5035381;28;20724;-61
2023/01/27 08:56:22;;;;;;;8.87;6.40;;;4.30;1.00;;;;;;5017923;28;20208;-61
2023/01/27 08:58:51;;;;;;;7.90;6.40;;;4.30;1.00;;;;;;5036289;28;20698;-60
2023/01/27 09:01:19;;;;;;;7.77;6.23;;;4.30;1.00;;;;;;5035359;28;20651;-59
2023/01/27 09:03:46;;;;;;;6.97;5.77;;;4.20;1.00;;;;;;5035330;28;20237;-61
2023/01/27 09:06:14;;;;;;;7.47;6.03;;;4.20;1.00;;;;;;5034596;28;20239;-59
2023/01/27 09:08:42;;;;;;;10.67;6.77;;;4.30;1.00;;;;;;5033389;28;20241;-58
2023/01/27 09:11:18;;;;;;;8.90;7.00;;;4.30;1.00;;;;;;5012637;28;20649;-65
2023/01/27 09:13:45;;;;;;;9.07;7.53;;;4.30;1.00;;;;;;5051973;28;20192;-68
2023/01/27 09:16:12;;;;;;;8.30;6.80;;;4.30;1.00;;;;;;5034422;28;20220;-65
2023/01/27 09:18:41;;;;;;;8.23;6.90;;;4.30;1.00;;;;;;5033801;28;20212;-59
2023/01/27 09:21:09;;;;;;;9.33;7.60;;;4.20;1.00;;;;;;5025818;28;20282;-62
2023/01/27 09:23:36;;;;;;;11.03;8.13;;;4.20;1.00;;;;;;5025429;28;20234;-65
2023/01/27 09:26:03;;;;;;;10.20;7.77;;;4.20;1.00;;;;;;5030234;28;20680;-64
2023/01/27 09:28:30;;;;;;;10.23;8.53;;;4.30;1.00;;;;;;5033601;28;20301;-66
2023/01/27 09:30:58;;;;;;;12.30;8.87;;;4.20;1.00;;;;;;5036489;28;20204;-65
2023/01/27 09:33:26;;;;;;;10.97;8.43;;;4.20;1.00;;;;;;5028141;28;20679;-67
2023/01/27 09:36:00;;;;;;;10.63;9.10;;;4.20;1.00;;;;;;5033362;28;20654;-65
2023/01/27 09:38:33;;;;;;;10.70;8.57;;;4.30;1.00;;;;;;5033550;28;20261;-65
2023/01/27 09:41:21;;;;;;;13.37;9.10;;;4.20;1.00;;;;;;5028024;28;20239;-66
2023/01/27 09:44:00;;;;;;;12.33;9.10;;;4.20;1.00;;;;;;5037746;28;20228;-68
2023/01/27 09:46:58;;;;;;;14.53;9.07;;;4.30;1.00;;;;;;4995176;28;20328;-66
2023/01/27 09:49:40;;;;;;;12.83;9.23;;;4.30;1.00;;;;;;4977930;28;20209;-66
2023/01/27 09:52:38;;;;;;;12.30;9.37;;;4.20;1.00;;;;;;4978529;28;20210;-68
2023/01/27 09:55:51;;;;;;;10.63;8.80;;;4.30;1.00;;;;;;4987157;28;20198;-66
2023/01/27 09:58:28;;;;;;;10.33;8.60;;;4.20;1.00;;;;;;4998423;28;20276;-66
2023/01/27 10:01:37;;;;;;;13.23;8.77;;;4.20;1.00;;;;;;5001332;28;20220;-68
2023/01/27 10:04:13;;;;;;;9.83;8.03;;;4.20;1.00;;;;;;4996806;28;20217;-66
2023/01/27 10:07:13;;;;;;;11.63;8.87;;;4.30;1.00;;;;;;4982317;28;20205;-66
2023/01/27 10:09:49;;;;;;;11.63;8.70;;;4.20;1.00;;;;;;4999181;28;20261;-66
2023/01/27 10:12:47;;;;;;;11.10;9.23;;;4.20;1.00;;;;;;5002201;28;20219;-64
2023/01/27 10:15:31;;;;;;;10.70;8.77;;;4.30;1.00;;;;;;4995565;28;20229;-66
2023/01/27 10:18:07;;;;;;;9.50;8.13;;;4.20;1.00;;;;;;5002016;28;20829;-68
2023/01/27 10:20:39;;;;;;;11.87;8.17;;;4.30;1.00;;;;;;5000338;28;20691;-66
2023/01/27 10:23:50;;;;;;;13.50;9.43;;;4.30;1.00;;;;;;4968886;28;20296;-65
2023/01/27 10:26:25;;;;;;;8.77;7.60;;;4.40;1.00;;;;;;4959060;28;20207;-67
2023/01/27 10:29:02;;;;;;;8.00;7.20;;;4.50;1.00;;;;;;4942069;28;20301;-65
2023/01/27 10:31:36;;;;;;;10.17;7.40;;;4.60;1.00;;;;;;4969646;28;20687;-66
2023/01/27 10:34:30;;;;;;;8.90;7.07;;;4.70;99.90;;;;;;4999258;28;20267;-66
2023/01/27 10:37:32;;;;;;;7.97;6.87;;;4.80;99.90;;;;;;4989118;28;20240;-64
2023/01/27 10:40:27;;;;;;;6.57;5.87;;;4.80;99.90;;;;;;4998717;28;20223;-66
2023/01/27 10:43:04;;;;;;;7.03;5.90;;;4.90;99.90;;;;;;5000246;28;20728;-66
2023/01/27 10:45:56;;;;;;;6.70;6.00;;;5.00;99.90;;;;;;5021353;28;20285;-65
2023/01/27 10:48:33;;;;;;;7.20;6.37;;;5.10;99.90;;;;;;5020342;28;20689;-65
2023/01/27 10:51:15;;;;;;;6.13;5.40;;;5.30;99.90;;;;;;5003437;28;20196;-67
2023/01/27 10:54:06;;;;;;;6.77;4.10;;;5.20;99.90;;;;;;5003982;28;20241;-67
2023/01/27 10:56:44;;;;;;;7.37;4.60;;;5.00;99.90;;;;;;5004524;28;20200;-68
2023/01/27 10:59:29;;;;;;;5.00;4.60;;;4.90;99.90;;;;;;5038047;28;20220;-66
2023/01/27 11:02:09;;;;;;;5.20;4.20;;;5.10;99.90;;;;;;5021298;28;20208;-66
2023/01/27 11:04:47;;;;;;;5.23;4.00;;;5.30;92.40;;;;;;5019787;28;20218;-67
2023/01/27 11:07:18;;;;;;;4.83;4.17;;;5.70;49.10;;;;;;5036874;28;20191;-66
2023/01/27 11:10:02;;;;;;;3.57;3.27;;;5.40;27.90;;;;;;5003393;28;20525;-68
2023/01/27 11:12:36;;;;;;;4.00;3.60;;;5.10;21.30;;;;;;5038150;28;20203;-69
2023/01/27 11:15:15;;;;;;;5.00;3.87;;;5.00;39.50;;;;;;5004303;28;20289;-67
2023/01/27 11:18:27;;;;;;;4.57;3.70;;;5.00;18.40;;;;;;5022587;28;20219;-59
2023/01/27 11:21:18;;;;;;;4.30;3.50;;;5.00;12.20;;;;;;4982367;28;20224;-67
2023/01/27 11:23:52;;;;;;;4.03;3.63;;;5.10;11.10;;;;;;5012606;28;20230;-67
2023/01/27 11:26:25;;;;;;;4.43;3.30;;;5.20;10.20;;;;;;5022014;28;20211;-67
2023/01/27 11:29:14;;;;;;;4.00;3.57;;;5.30;1.00;;;;;;5021748;28;20278;-67
2023/01/27 11:32:00;;;;;;;2.83;2.63;;;5.50;1.00;;;;;;5039218;28;20222;-66
2023/01/27 11:34:30;;;;;;;3.30;3.03;;;5.60;1.00;;;;;;5036078;28;20687;-65
2023/01/27 11:36:58;;;;;;;3.50;2.83;;;5.50;1.00;;;;;;5039465;28;20202;-66
2023/01/27 11:39:31;;;;;;;2.60;2.33;;;5.50;1.00;;;;;;5038014;28;20266;-67
2023/01/27 11:41:58;;;;;;;3.10;2.80;;;5.40;1.00;;;;;;5039016;28;20562;-66
2023/01/27 11:44:32;;;;;;;2.40;2.13;;;5.50;1.00;;;;;;5038488;28;20276;-66
2023/01/27 11:47:01;;;;;;;2.87;2.57;;;5.50;1.00;;;;;;5038308;28;20562;-66
2023/01/27 11:49:33;;;;;;;3.93;3.13;;;5.40;1.00;;;;;;5038277;28;20251;-66
2023/01/27 11:52:21;;;;;;;3.00;2.70;;;5.40;1.00;;;;;;5019531;28;20195;-66
2023/01/27 11:55:13;;;;;;;3.03;2.83;;;5.50;1.00;;;;;;5020593;28;20211;-66
2023/01/27 11:57:44;;;;;;;3.23;2.93;;;5.70;1.00;;;;;;5021073;28;20780;-66
2023/01/27 12:00:11;;;;;;;3.50;3.20;;;5.60;1.00;;;;;;5040317;28;20214;-66
2023/01/27 12:02:48;;;;;;;3.80;3.50;;;5.30;1.00;;;;;;5020494;28;20306;-66
2023/01/27 12:05:20;;;;;;;2.77;2.57;;;5.00;1.00;;;;;;5019846;28;20282;-66
2023/01/27 12:07:56;;;;;;;3.80;3.37;;;4.90;1.00;;;;;;5021666;28;20618;-65
2023/01/27 12:10:32;;;;;;;4.00;3.43;;;4.70;1.00;;;;;;5036328;28;20282;-65
2023/01/27 12:13:25;;;;;;;4.37;3.00;;;4.80;1.00;;;;;;5018478;28;20198;-65
2023/01/27 12:16:03;;;;;;;4.37;3.97;;;4.80;1.00;;;;;;5011113;28;20334;-65
2023/01/27 12:18:33;;;;;;;7.23;5.57;;;4.80;1.00;;;;;;5038023;28;20195;-68
2023/01/27 12:21:07;;;;;;;3.57;3.27;;;4.80;1.00;;;;;;5017247;28;20208;-66
2023/01/27 12:24:01;;;;;;;2.40;2.20;;;4.70;1.00;;;;;;5014822;28;20749;-65
2023/01/27 12:26:37;;;;;;;7.47;6.50;;;4.80;1.00;;;;;;5009049;28;20200;-66
2023/01/27 12:29:12;;;;;;;4.37;3.13;;;4.70;1.00;;;;;;5015264;28;20195;-66
2023/01/27 12:31:47;;;;;;;5.63;4.77;;;4.70;1.00;;;;;;5037919;28;20241;-65
2023/01/27 12:34:33;;;;;;;3.07;2.77;;;4.70;1.00;;;;;;5037967;28;20200;-67
2023/01/27 12:37:04;;;;;;;3.03;2.70;;;4.70;1.00;;;;;;5037333;28;20241;-66
2023/01/27 12:39:43;;;;;;;7.13;3.60;;;4.70;1.00;;;;;;5020673;28;20225;-68
2023/01/27 12:42:37;;;;;;;4.00;2.77;;;4.70;1.00;;;;;;5040063;28;20195;-68
2023/01/27 12:45:30;;;;;;;3.27;2.67;;;4.60;1.00;;;;;;5029448;28;20711;-65
2023/01/27 12:48:01;;;;;;;2.93;2.17;;;4.60;1.00;;;;;;5018891;28;20620;-65
2023/01/27 12:50:34;;;;;;;3.70;3.20;;;4.70;1.00;;;;;;5016661;28;20400;-66
2023/01/27 12:53:16;;;;;;;3.00;2.57;;;4.70;1.00;;;;;;5017542;28;20279;-67
2023/01/27 12:55:52;;;;;;;2.00;1.90;;;4.60;1.00;;;;;;5016930;28;20230;-66
2023/01/27 12:58:30;;;;;;;2.37;2.17;;;4.60;1.00;;;;;;5014849;28;20204;-65
2023/01/27 13:01:16;;;;;;;4.03;2.03;;;4.60;1.00;;;;;;5009673;28;20295;-65
2023/01/27 13:03:44;;;;;;;2.40;1.90;;;4.60;1.00;;;;;;4997896;28;20659;-65
2023/01/27 13:06:15;;;;;;;2.30;2.10;;;4.60;1.00;;;;;;5017481;28;20202;-65
2023/01/27 13:08:43;;;;;;;2.63;1.80;;;4.70;1.00;;;;;;5016985;28;20219;-65
2023/01/27 13:11:10;;;;;;;2.20;2.00;;;4.60;1.00;;;;;;5015276;28;20237;-65
2023/01/27 13:13:48;;;;;;;2.67;2.00;;;4.70;1.00;;;;;;5017025;28;21004;-65
2023/01/27 13:16:23;;;;;;;2.80;2.37;;;4.60;1.00;;;;;;5017776;28;20707;-65
2023/01/27 13:22:55;;;;;;;2.93;2.37;;;4.70;1.00;;;;;;5014581;28;20196;-66
2023/01/27 13:29:30;;;;;;;6.37;2.53;;;4.80;1.00;;;;;;4964917;28;20830;-65
2023/01/27 13:32:02;;;;;;;9.03;3.60;;;4.80;1.00;;;;;;5013319;28;20649;-65
2023/01/27 13:34:52;;;;;;;9.60;3.90;;;4.80;1.00;;;;;;5020877;28;20203;-65
2023/01/27 13:37:32;;;;;;;11.50;4.80;;;4.70;1.00;;;;;;5019266;28;20211;-66
2023/01/27 13:40:26;;;;;;;9.37;4.70;;;4.80;1.00;;;;;;4986726;28;20311;-66
2023/01/27 13:43:22;;;;;;;5.67;4.17;;;4.80;1.00;;;;;;5019882;28;20201;-66
2023/01/27 13:46:18;;;;;;;5.07;3.90;;;4.90;1.00;;;;;;5032881;28;20239;-66
2023/01/27 13:48:49;;;;;;;7.17;4.90;;;4.90;1.00;;;;;;5038726;28;20599;-66
2023/01/27 13:51:19;;;;;;;8.93;5.23;;;5.10;1.00;;;;;;5006218;28;20338;-66
2023/01/27 13:53:51;;;;;;;5.50;2.60;;;5.10;1.00;;;;;;5038502;28;20823;-66
2023/01/27 13:56:18;;;;;;;5.93;4.40;;;5.10;1.00;;;;;;5041073;28;20203;-65